Time;durP1;ratioP1;P1;durP2;ratioP2;P2;SDS_P1;SDS_P2;PMS_P1;PMS_P2;Temp;Humidity;BMP_temperature;BMP_pressure;BME280_temperature;BME280_humidity;BME280_pressure;Samples;Min_cycle;Max_cycle;Signal;HPM_P1;HPM_P2
2023/06/03 00:03:16;;;;;;;5.70;5.10;;;17.50;71.10;;;;;;10381327;28;20226;-84
2023/06/03 00:08:18;;;;;;;9.10;5.20;;;17.40;71.70;;;;;;10401154;28;20195;-84
2023/06/03 00:13:22;;;;;;;8.43;5.43;;;17.30;71.50;;;;;;10383249;28;20695;-84
2023/06/03 00:18:24;;;;;;;5.67;5.07;;;17.20;71.50;;;;;;10385469;28;20227;-84
2023/06/03 00:23:26;;;;;;;6.30;5.70;;;17.20;71.80;;;;;;10422275;28;20265;-84
2023/06/03 00:28:30;;;;;;;6.43;5.77;;;17.20;72.40;;;;;;10413733;28;20253;-84
2023/06/03 00:33:32;;;;;;;9.40;5.37;;;17.10;72.30;;;;;;10400716;28;20599;-83
2023/06/03 00:38:34;;;;;;;8.23;5.17;;;17.10;72.40;;;;;;10417907;28;20223;-84
2023/06/03 00:43:38;;;;;;;9.60;5.53;;;17.10;72.20;;;;;;10452282;28;20558;-84
2023/06/03 00:48:40;;;;;;;7.47;5.27;;;17.00;72.30;;;;;;10404019;28;20250;-84
2023/06/03 00:53:42;;;;;;;8.90;5.77;;;17.00;72.70;;;;;;10460862;28;20229;-84
2023/06/03 00:58:46;;;;;;;12.70;5.60;;;16.90;72.30;;;;;;10419985;28;20301;-84
2023/06/03 01:03:50;;;;;;;7.80;5.40;;;16.90;72.60;;;;;;10452296;28;20190;-84
2023/06/03 01:08:57;;;;;;;7.50;5.20;;;16.80;72.90;;;;;;10414503;28;20317;-84
2023/06/03 01:14:08;;;;;;;7.20;6.10;;;16.70;73.50;;;;;;10415601;28;20296;-83
2023/06/03 01:19:20;;;;;;;7.40;5.10;;;16.70;73.70;;;;;;10424595;28;20229;-84
2023/06/03 01:24:24;;;;;;;8.23;5.63;;;16.70;74.20;;;;;;10386200;28;20233;-84
2023/06/03 01:29:26;;;;;;;7.97;5.27;;;16.70;73.70;;;;;;10424871;28;20328;-83
2023/06/03 01:34:29;;;;;;;8.33;5.40;;;16.60;73.60;;;;;;10406402;28;20226;-83
2023/06/03 01:39:33;;;;;;;9.03;6.63;;;16.50;73.80;;;;;;10418699;28;20230;-83
2023/06/03 01:44:36;;;;;;;7.83;5.50;;;16.40;73.90;;;;;;10431338;28;20269;-84
2023/06/03 01:49:39;;;;;;;7.47;5.10;;;16.40;74.80;;;;;;10438884;28;20218;-83
2023/06/03 01:54:42;;;;;;;6.80;5.00;;;16.30;74.10;;;;;;10413766;28;20230;-84
2023/06/03 01:59:46;;;;;;;11.43;5.20;;;16.20;74.70;;;;;;10422033;28;20226;-84
2023/06/03 02:04:48;;;;;;;5.53;4.63;;;16.20;74.90;;;;;;10402627;28;20221;-84
2023/06/03 02:09:55;;;;;;;8.13;5.43;;;16.20;75.30;;;;;;10398700;28;20638;-83
2023/06/03 02:14:57;;;;;;;7.17;5.17;;;16.20;74.70;;;;;;10461098;28;20309;-84
2023/06/03 02:19:59;;;;;;;7.80;5.07;;;16.20;75.00;;;;;;10443146;28;20240;-84
2023/06/03 02:25:03;;;;;;;11.20;5.90;;;16.20;75.60;;;;;;10399523;28;20202;-83
2023/06/03 02:30:10;;;;;;;6.87;5.40;;;16.20;75.10;;;;;;10398210;28;20242;-84
2023/06/03 02:35:12;;;;;;;5.83;5.03;;;16.10;75.30;;;;;;10392260;28;20245;-84
2023/06/03 02:40:16;;;;;;;6.37;5.20;;;16.00;75.30;;;;;;10400161;28;20596;-84
2023/06/03 02:45:18;;;;;;;6.00;5.40;;;16.00;76.00;;;;;;10423744;28;20249;-84
2023/06/03 02:50:20;;;;;;;7.30;5.60;;;16.00;75.90;;;;;;10409643;28;20240;-84
2023/06/03 02:55:27;;;;;;;10.60;6.30;;;16.00;76.10;;;;;;10392976;28;20594;-84
2023/06/03 03:00:31;;;;;;;13.63;4.97;;;16.00;75.90;;;;;;10411045;28;20218;-84
2023/06/03 03:05:34;;;;;;;8.30;5.40;;;16.00;76.00;;;;;;10404087;28;20207;-84
2023/06/03 03:10:37;;;;;;;8.23;6.07;;;15.90;76.40;;;;;;10397331;28;20227;-84
2023/06/03 03:15:39;;;;;;;5.40;4.90;;;15.90;76.70;;;;;;10372053;28;20249;-83
2023/06/03 03:20:42;;;;;;;12.03;6.03;;;15.80;76.70;;;;;;10383887;28;20222;-84
2023/06/03 03:25:46;;;;;;;5.17;4.67;;;15.90;75.90;;;;;;10378974;28;20203;-83
2023/06/03 03:30:49;;;;;;;8.10;5.47;;;15.80;76.50;;;;;;10403550;28;20740;-84
2023/06/03 03:35:52;;;;;;;7.10;4.63;;;15.80;76.40;;;;;;10409827;28;20309;-84
2023/06/03 03:40:57;;;;;;;12.40;5.27;;;15.70;77.00;;;;;;10405171;28;20260;-84
2023/06/03 03:46:00;;;;;;;6.73;4.97;;;15.70;77.30;;;;;;10393187;28;20210;-83
2023/06/03 03:51:03;;;;;;;9.63;5.23;;;15.70;76.90;;;;;;10402603;28;20592;-84
2023/06/03 03:56:16;;;;;;;5.23;4.50;;;15.80;76.90;;;;;;10430267;28;20210;-84
2023/06/03 04:01:23;;;;;;;8.80;5.10;;;15.70;76.90;;;;;;10439185;28;20249;-83
2023/06/03 04:06:36;;;;;;;8.37;5.13;;;15.70;76.80;;;;;;10394574;28;20218;-83
2023/06/03 04:11:42;;;;;;;6.17;5.13;;;15.70;77.10;;;;;;10395401;28;20230;-84
2023/06/03 04:16:57;;;;;;;5.70;5.13;;;15.70;77.20;;;;;;10436288;28;20212;-83
2023/06/03 04:22:18;;;;;;;7.37;5.67;;;15.70;77.70;;;;;;10440952;28;20213;-84
2023/06/03 04:27:22;;;;;;;5.10;4.70;;;15.70;77.90;;;;;;10399424;28;20202;-84
2023/06/03 04:32:25;;;;;;;5.93;4.90;;;15.80;78.30;;;;;;10364436;28;20227;-84
2023/06/03 04:37:28;;;;;;;5.43;4.73;;;15.80;78.30;;;;;;10407306;28;20325;-85
2023/06/03 04:42:33;;;;;;;10.50;5.50;;;15.90;79.00;;;;;;10384008;28;20277;-84
2023/06/03 04:47:41;;;;;;;8.60;5.10;;;15.90;79.00;;;;;;10385843;28;20190;-84
2023/06/03 04:52:43;;;;;;;7.20;5.43;;;16.00;78.90;;;;;;10379832;28;20231;-84
2023/06/03 04:57:50;;;;;;;6.93;5.30;;;16.00;79.10;;;;;;10403411;28;20204;-84
2023/06/03 05:02:56;;;;;;;8.40;5.43;;;16.10;79.00;;;;;;10410838;28;20702;-84
2023/06/03 05:08:00;;;;;;;9.80;5.73;;;16.10;79.60;;;;;;10390309;28;20195;-84
2023/06/03 05:13:05;;;;;;;7.77;4.63;;;16.10;79.30;;;;;;10373358;28;20331;-84
2023/06/03 05:18:07;;;;;;;7.97;5.00;;;16.20;79.20;;;;;;10393145;28;20310;-84
2023/06/03 05:23:10;;;;;;;5.23;4.73;;;16.40;78.70;;;;;;10400702;28;20639;-84
2023/06/03 05:28:15;;;;;;;10.00;5.37;;;16.50;78.00;;;;;;10376326;28;20748;-84
2023/06/03 05:33:25;;;;;;;6.90;5.47;;;16.60;77.50;;;;;;10460581;28;20452;-84
2023/06/03 05:38:30;;;;;;;7.80;5.03;;;16.80;76.80;;;;;;10411037;28;20234;-84
2023/06/03 05:43:34;;;;;;;6.83;5.30;;;16.80;76.50;;;;;;10446320;28;20205;-84
2023/06/03 05:48:37;;;;;;;9.47;5.03;;;16.90;77.10;;;;;;10418961;28;20233;-84
2023/06/03 05:53:43;;;;;;;6.63;5.60;;;17.00;75.60;;;;;;10393475;28;20218;-84
2023/06/03 05:58:48;;;;;;;6.53;5.23;;;17.10;74.30;;;;;;10418860;28;20301;-84
2023/06/03 06:03:51;;;;;;;8.63;4.77;;;17.20;75.10;;;;;;10398782;28;20547;-84
2023/06/03 06:08:54;;;;;;;7.30;4.77;;;17.20;76.00;;;;;;10427233;28;20258;-84
2023/06/03 06:13:58;;;;;;;6.70;4.70;;;17.30;75.10;;;;;;10418042;28;20629;-84
2023/06/03 06:19:01;;;;;;;6.93;4.80;;;17.40;74.60;;;;;;10402983;28;20213;-84
2023/06/03 06:24:07;;;;;;;7.73;4.60;;;17.50;75.00;;;;;;10387497;28;20361;-84
2023/06/03 06:29:10;;;;;;;6.80;5.13;;;17.60;74.60;;;;;;10403292;28;20243;-81
2023/06/03 06:34:17;;;;;;;6.80;4.87;;;17.80;73.40;;;;;;10418077;28;20317;-81
2023/06/03 06:39:45;;;;;;;9.40;5.00;;;17.90;74.30;;;;;;10422014;28;20741;-81
2023/06/03 06:44:53;;;;;;;8.30;6.00;;;18.30;72.20;;;;;;10435781;28;20245;-81
2023/06/03 06:49:57;;;;;;;6.80;5.00;;;18.50;72.40;;;;;;10443501;28;20642;-81
2023/06/03 06:55:02;;;;;;;7.03;4.40;;;18.70;72.20;;;;;;10414477;28;20301;-81
2023/06/03 07:00:08;;;;;;;6.30;5.00;;;19.00;70.40;;;;;;10418378;28;20571;-81
2023/06/03 07:05:13;;;;;;;6.37;5.10;;;19.20;70.10;;;;;;10410601;28;20280;-81
2023/06/03 07:10:20;;;;;;;6.97;4.10;;;19.40;69.30;;;;;;10410171;28;20227;-81
2023/06/03 07:15:24;;;;;;;5.60;5.07;;;19.60;69.20;;;;;;10449170;28;20218;-81
2023/06/03 07:20:31;;;;;;;6.50;4.80;;;19.90;68.20;;;;;;10436968;28;20283;-81
2023/06/03 07:25:36;;;;;;;6.47;4.90;;;20.10;69.00;;;;;;10429793;28;20196;-81
2023/06/03 07:30:41;;;;;;;5.33;4.50;;;20.40;68.40;;;;;;10441931;28;20242;-81
2023/06/03 07:35:44;;;;;;;6.20;4.90;;;20.80;68.00;;;;;;10414797;28;20222;-81
2023/06/03 07:40:47;;;;;;;4.90;4.40;;;21.20;67.90;;;;;;10417361;28;20321;-81
2023/06/03 07:45:51;;;;;;;11.50;4.70;;;21.60;65.80;;;;;;10438092;28;20286;-82
2023/06/03 07:50:54;;;;;;;7.83;4.70;;;22.00;64.50;;;;;;10440541;28;20214;-81
2023/06/03 07:55:56;;;;;;;9.70;4.73;;;22.50;64.50;;;;;;10455727;28;20316;-81
2023/06/03 08:00:59;;;;;;;6.93;4.80;;;23.00;61.90;;;;;;10454993;28;20305;-81
2023/06/03 08:06:02;;;;;;;6.07;4.40;;;23.40;62.50;;;;;;10428269;28;20191;-81
2023/06/03 08:11:05;;;;;;;5.17;4.27;;;23.80;62.80;;;;;;10424099;28;20234;-82
2023/06/03 08:16:09;;;;;;;8.50;5.43;;;24.30;61.20;;;;;;10415785;28;20230;-81
2023/06/03 08:21:11;;;;;;;8.53;4.73;;;24.80;60.40;;;;;;10418749;28;20226;-88
2023/06/03 08:26:14;;;;;;;7.77;4.50;;;25.30;59.20;;;;;;10402235;28;20199;-86
2023/06/03 08:31:17;;;;;;;6.87;5.07;;;25.70;59.00;;;;;;10355100;28;20241;-86
2023/06/03 08:36:22;;;;;;;7.00;4.20;;;26.00;58.80;;;;;;10338648;28;20374;-87
2023/06/03 08:41:27;;;;;;;6.37;4.33;;;26.30;58.00;;;;;;10350488;28;20223;-86
2023/06/03 08:46:35;;;;;;;5.63;4.73;;;26.60;57.90;;;;;;10366075;28;20681;-87
2023/06/03 08:51:39;;;;;;;4.37;4.03;;;26.90;57.80;;;;;;10366560;28;20719;-87
2023/06/03 08:56:53;;;;;;;5.77;4.67;;;27.00;56.70;;;;;;10357287;28;20305;-87
2023/06/03 09:01:58;;;;;;;5.73;4.67;;;27.20;57.00;;;;;;10382717;28;20247;-87
2023/06/03 09:07:03;;;;;;;7.10;3.90;;;27.40;56.50;;;;;;10368128;28;20219;-87
2023/06/03 09:12:07;;;;;;;8.40;5.10;;;27.60;56.10;;;;;;10352195;28;20227;-87
2023/06/03 09:17:11;;;;;;;8.97;4.90;;;27.90;55.40;;;;;;10409786;28;20211;-85
2023/06/03 09:22:14;;;;;;;5.93;4.73;;;28.10;56.30;;;;;;10352406;28;20586;-83
2023/06/03 09:27:16;;;;;;;5.90;5.10;;;28.40;55.50;;;;;;10397720;28;20207;-86
2023/06/03 09:32:20;;;;;;;11.57;6.33;;;28.70;54.60;;;;;;10387758;28;20583;-84
2023/06/03 09:37:22;;;;;;;8.20;5.83;;;29.10;54.60;;;;;;10351946;28;20329;-85
2023/06/03 09:42:40;;;;;;;6.80;6.20;;;29.50;53.70;;;;;;10374216;28;20224;-85
2023/06/03 09:47:43;;;;;;;6.07;5.50;;;30.10;53.30;;;;;;10373077;28;20225;-86
2023/06/03 09:52:45;;;;;;;7.40;5.47;;;31.00;52.80;;;;;;10429166;28;20224;-85
2023/06/03 09:58:03;;;;;;;5.83;4.93;;;32.10;51.60;;;;;;10379968;28;20571;-85
2023/06/03 10:03:09;;;;;;;7.53;5.70;;;33.00;50.50;;;;;;10358561;28;20420;-85
2023/06/03 10:08:12;;;;;;;8.07;4.53;;;34.00;49.70;;;;;;10364495;28;20202;-85
2023/06/03 10:13:23;;;;;;;10.20;5.32;;;34.80;48.30;;;;;;10414632;28;20307;-85
2023/06/03 10:18:38;;;;;;;10.38;5.03;;;35.70;47.70;;;;;;10382126;28;20194;-85
2023/06/03 10:23:41;;;;;;;6.47;4.80;;;35.60;46.60;;;;;;10371188;28;20632;-84
2023/06/03 10:28:46;;;;;;;5.67;4.70;;;34.00;47.30;;;;;;10375233;28;20256;-84
2023/06/03 10:33:51;;;;;;;8.37;5.53;;;32.10;48.70;;;;;;10395068;28;20268;-83
2023/06/03 10:38:56;;;;;;;5.67;5.17;;;30.30;51.20;;;;;;10391016;28;20225;-84
2023/06/03 10:43:58;;;;;;;7.37;6.00;;;28.90;52.80;;;;;;10407920;28;20600;-84
2023/06/03 10:49:03;;;;;;;7.50;6.23;;;28.00;54.80;;;;;;10417635;28;20258;-83
2023/06/03 10:54:20;;;;;;;6.73;6.00;;;27.20;55.30;;;;;;10380941;28;20698;-86
2023/06/03 10:59:24;;;;;;;6.10;5.50;;;26.60;57.20;;;;;;10384825;28;20248;-86
2023/06/03 11:04:29;;;;;;;6.80;5.60;;;26.10;57.70;;;;;;10353498;28;20200;-86
2023/06/03 11:09:36;;;;;;;9.67;6.40;;;25.80;57.70;;;;;;10366527;28;20242;-86
2023/06/03 11:14:55;;;;;;;6.20;5.30;;;25.60;58.00;;;;;;10337170;28;20314;-87
2023/06/03 11:20:00;;;;;;;9.13;5.97;;;25.20;59.00;;;;;;10377072;28;20233;-83
2023/06/03 11:25:02;;;;;;;7.10;6.40;;;25.00;58.60;;;;;;10429030;28;20202;-83
2023/06/03 11:30:07;;;;;;;8.10;7.00;;;24.90;58.60;;;;;;10416210;28;20226;-82
2023/06/03 11:35:30;;;;;;;6.90;5.70;;;24.70;59.00;;;;;;10412672;28;20215;-83
2023/06/03 11:40:45;;;;;;;5.73;5.33;;;24.60;60.70;;;;;;10413529;28;20230;-83
2023/06/03 11:45:49;;;;;;;7.37;6.70;;;24.60;60.50;;;;;;10435653;28;20183;-82
2023/06/03 11:50:57;;;;;;;6.50;5.90;;;24.60;60.10;;;;;;10422117;28;20612;-83
2023/06/03 11:56:04;;;;;;;7.20;6.60;;;24.60;59.90;;;;;;10430695;28;20230;-83
2023/06/03 12:01:16;;;;;;;6.10;5.53;;;24.60;58.90;;;;;;10435817;28;20612;-82
2023/06/03 12:06:20;;;;;;;6.57;5.67;;;24.60;59.90;;;;;;10404425;28;20194;-83
2023/06/03 12:11:26;;;;;;;6.40;5.90;;;24.80;60.20;;;;;;10412052;28;20642;-83
2023/06/03 12:16:31;;;;;;;7.03;5.83;;;24.90;60.20;;;;;;10441290;28;20720;-82
2023/06/03 12:21:36;;;;;;;6.87;6.20;;;25.00;58.80;;;;;;10437235;28;20214;-82
2023/06/03 12:26:40;;;;;;;6.30;5.77;;;24.90;59.40;;;;;;10404730;28;20214;-83
2023/06/03 12:31:57;;;;;;;6.13;5.63;;;25.00;58.90;;;;;;10392445;28;20229;-83
2023/06/03 12:37:00;;;;;;;6.47;5.83;;;25.00;59.30;;;;;;10425641;28;20564;-83
2023/06/03 12:42:03;;;;;;;6.63;6.13;;;24.90;58.50;;;;;;10396897;28;20332;-83
2023/06/03 12:47:06;;;;;;;10.30;8.43;;;24.90;59.10;;;;;;10395218;28;20313;-83
2023/06/03 12:52:15;;;;;;;6.27;5.67;;;25.00;58.60;;;;;;10389350;28;20217;-83
2023/06/03 12:57:18;;;;;;;6.90;6.27;;;25.10;59.20;;;;;;10409647;28;20249;-82
2023/06/03 13:02:20;;;;;;;9.20;6.40;;;25.20;58.00;;;;;;10414024;28;20221;-83
2023/06/03 13:07:23;;;;;;;7.30;6.60;;;25.20;57.10;;;;;;10425427;28;20364;-83
2023/06/03 13:12:26;;;;;;;6.83;6.20;;;25.00;58.50;;;;;;10392314;28;20233;-83
2023/06/03 13:17:28;;;;;;;6.47;5.87;;;24.90;58.80;;;;;;10426288;28;20344;-82
2023/06/03 13:22:32;;;;;;;5.90;5.40;;;24.90;59.40;;;;;;10407265;28;20227;-83
2023/06/03 13:27:34;;;;;;;7.13;6.43;;;25.00;59.50;;;;;;10390467;28;20229;-84
2023/06/03 13:32:37;;;;;;;6.57;6.07;;;25.00;58.30;;;;;;10467223;28;20246;-84
2023/06/03 13:37:40;;;;;;;6.47;5.80;;;25.00;57.40;;;;;;10436224;28;20225;-84
2023/06/03 13:42:43;;;;;;;6.07;5.47;;;24.90;58.40;;;;;;10389136;28;20217;-82
2023/06/03 13:47:45;;;;;;;6.67;6.00;;;25.00;58.60;;;;;;10435516;28;20218;-83
2023/06/03 13:52:48;;;;;;;6.10;5.47;;;25.10;58.30;;;;;;10425341;28;20218;-83
2023/06/03 13:57:51;;;;;;;6.30;5.60;;;25.20;57.80;;;;;;10420318;28;20214;-83
2023/06/03 14:02:55;;;;;;;6.23;5.00;;;25.30;58.00;;;;;;10365586;28;20217;-83
2023/06/03 14:07:58;;;;;;;10.03;6.00;;;25.30;56.90;;;;;;10456820;28;20205;-83
2023/06/03 14:13:00;;;;;;;5.80;5.30;;;25.20;57.60;;;;;;10433340;28;20256;-83
2023/06/03 14:18:03;;;;;;;6.30;5.70;;;25.00;58.60;;;;;;10440353;28;20537;-83
2023/06/03 14:23:06;;;;;;;7.17;6.57;;;24.90;58.50;;;;;;10442393;28;20655;-83
2023/06/03 14:28:08;;;;;;;5.97;5.47;;;25.00;60.80;;;;;;10400415;28;20194;-83
2023/06/03 14:33:10;;;;;;;14.80;5.97;;;25.00;59.60;;;;;;10426019;28;20199;-85
2023/06/03 14:38:15;;;;;;;5.60;5.10;;;25.10;57.20;;;;;;10419220;28;20206;-85
2023/06/03 14:43:17;;;;;;;5.57;5.07;;;25.10;58.00;;;;;;10368752;28;20196;-85
2023/06/03 14:48:19;;;;;;;5.97;5.43;;;25.10;57.20;;;;;;10405094;28;20245;-85
2023/06/03 14:53:23;;;;;;;7.47;6.43;;;25.20;57.60;;;;;;10416164;28;20273;-83
2023/06/03 14:58:25;;;;;;;7.10;5.37;;;25.20;58.20;;;;;;10394520;28;20198;-84
2023/06/03 15:03:27;;;;;;;5.57;5.07;;;25.20;57.80;;;;;;10411212;28;20545;-83
2023/06/03 15:08:31;;;;;;;5.77;5.27;;;25.10;58.10;;;;;;10377363;28;20714;-83
2023/06/03 15:13:33;;;;;;;6.50;5.97;;;25.10;57.60;;;;;;10356574;28;20566;-83
2023/06/03 15:18:35;;;;;;;6.43;5.30;;;25.00;57.20;;;;;;10393379;28;20317;-84
2023/06/03 15:23:39;;;;;;;6.27;5.63;;;25.00;57.10;;;;;;10367889;28;20199;-83
2023/06/03 15:28:41;;;;;;;9.10;5.20;;;24.90;56.40;;;;;;10392854;28;20226;-83
2023/06/03 15:33:46;;;;;;;6.20;5.60;;;24.80;57.00;;;;;;10369280;23;20572;-83
2023/06/03 15:38:50;;;;;;;6.10;5.50;;;24.70;57.10;;;;;;10339901;28;20224;-84
2023/06/03 15:43:54;;;;;;;6.47;5.97;;;24.70;58.60;;;;;;10329108;28;20220;-84
2023/06/03 15:48:56;;;;;;;5.67;5.17;;;24.60;57.80;;;;;;10324480;28;20206;-82
2023/06/03 15:53:59;;;;;;;8.50;6.10;;;24.70;57.80;;;;;;10344107;28;20284;-82
2023/06/03 15:59:02;;;;;;;7.50;5.97;;;24.70;56.60;;;;;;10345643;28;20263;-83
2023/06/03 16:04:04;;;;;;;11.30;5.80;;;24.70;57.40;;;;;;10343010;28;20642;-84
2023/06/03 16:09:07;;;;;;;6.17;5.57;;;24.70;57.40;;;;;;10344039;28;20219;-84
2023/06/03 16:14:10;;;;;;;6.80;6.10;;;24.60;57.40;;;;;;10327830;28;20239;-83
2023/06/03 16:19:12;;;;;;;6.00;5.47;;;24.60;58.20;;;;;;10337205;28;20259;-82
2023/06/03 16:24:17;;;;;;;6.20;5.27;;;24.60;58.60;;;;;;10309253;28;20252;-82
2023/06/03 16:29:19;;;;;;;6.07;5.50;;;24.60;56.80;;;;;;10312690;28;20196;-84
2023/06/03 16:34:22;;;;;;;6.00;5.50;;;24.60;57.20;;;;;;10331877;28;20648;-84
2023/06/03 16:39:26;;;;;;;6.30;5.60;;;24.50;57.90;;;;;;10332408;28;20202;-83
2023/06/03 16:44:28;;;;;;;5.53;5.13;;;24.40;57.70;;;;;;10338714;28;20684;-84
2023/06/03 16:49:30;;;;;;;6.97;5.70;;;24.40;58.30;;;;;;10337190;28;20250;-81
2023/06/03 16:54:33;;;;;;;7.93;5.93;;;24.30;58.60;;;;;;10336676;28;20238;-81
2023/06/03 16:59:36;;;;;;;5.90;5.30;;;24.30;58.40;;;;;;10341628;28;21215;-83
2023/06/03 17:04:38;;;;;;;6.77;5.90;;;24.30;58.20;;;;;;10324162;28;20207;-82
2023/06/03 17:09:41;;;;;;;7.50;6.30;;;24.20;57.60;;;;;;10332581;28;20207;-82
2023/06/03 17:14:43;;;;;;;6.30;5.80;;;24.20;58.20;;;;;;10338148;28;20617;-82
2023/06/03 17:19:45;;;;;;;6.67;6.00;;;24.20;58.70;;;;;;10356618;28;20258;-84
2023/06/03 17:24:49;;;;;;;7.70;6.10;;;24.20;57.90;;;;;;10342614;28;20198;-83
2023/06/03 17:29:52;;;;;;;6.50;5.80;;;24.10;57.90;;;;;;10331936;28;20737;-82
2023/06/03 17:34:54;;;;;;;6.00;5.50;;;24.10;57.70;;;;;;10380470;28;20283;-82
2023/06/03 17:39:58;;;;;;;5.70;5.20;;;24.00;58.20;;;;;;10361592;28;20714;-81
2023/06/03 17:45:00;;;;;;;5.83;5.30;;;24.00;58.80;;;;;;10361873;28;20196;-82
2023/06/03 17:50:02;;;;;;;6.27;5.50;;;23.90;58.90;;;;;;10363025;28;20233;-81
2023/06/03 17:55:06;;;;;;;7.47;6.07;;;23.90;58.90;;;;;;10378228;28;20231;-82
2023/06/03 18:00:10;;;;;;;6.30;5.67;;;23.80;58.00;;;;;;10357228;28;20341;-82
2023/06/03 18:05:14;;;;;;;5.77;5.27;;;23.80;58.20;;;;;;10373723;28;20226;-81
2023/06/03 18:10:18;;;;;;;7.70;5.87;;;23.70;58.70;;;;;;10373691;28;20290;-82
2023/06/03 18:15:20;;;;;;;6.40;5.90;;;23.60;58.80;;;;;;10343991;28;20226;-82
2023/06/03 18:20:22;;;;;;;5.90;5.40;;;23.50;58.30;;;;;;10366238;28;20246;-82
2023/06/03 18:25:26;;;;;;;9.30;6.17;;;23.40;58.80;;;;;;10366002;28;20722;-82
2023/06/03 18:30:32;;;;;;;6.30;5.70;;;23.40;57.80;;;;;;10366476;28;20274;-82
2023/06/03 18:35:34;;;;;;;6.53;5.93;;;23.30;59.60;;;;;;10384414;28;20234;-82
2023/06/03 18:40:38;;;;;;;7.50;6.23;;;23.20;59.60;;;;;;10373330;28;20262;-81
2023/06/03 18:45:41;;;;;;;7.00;5.87;;;23.10;60.30;;;;;;10377016;28;20207;-82
2023/06/03 18:50:43;;;;;;;10.70;6.87;;;23.10;59.30;;;;;;10379936;28;20243;-82
2023/06/03 18:55:47;;;;;;;7.10;6.20;;;23.00;59.80;;;;;;10379306;28;20219;-82
2023/06/03 19:00:50;;;;;;;7.30;6.40;;;22.90;58.60;;;;;;10362036;28;20575;-82
2023/06/03 19:05:52;;;;;;;7.17;6.47;;;22.80;59.40;;;;;;10379127;28;20196;-81
2023/06/03 19:10:56;;;;;;;6.43;5.77;;;22.80;59.10;;;;;;10386196;28;20227;-81
2023/06/03 19:15:58;;;;;;;6.20;5.60;;;22.70;59.50;;;;;;10363731;28;20257;-82
2023/06/03 19:21:00;;;;;;;6.60;5.80;;;22.70;58.70;;;;;;10336000;28;20313;-81
2023/06/03 19:26:04;;;;;;;6.23;5.53;;;22.60;60.60;;;;;;10364199;28;20283;-82
2023/06/03 19:31:06;;;;;;;7.43;6.80;;;22.50;59.40;;;;;;10360013;28;20273;-82
2023/06/03 19:36:08;;;;;;;7.13;6.10;;;22.40;61.70;;;;;;10359208;28;20520;-81
2023/06/03 19:41:11;;;;;;;7.53;6.70;;;22.30;61.20;;;;;;10376730;28;20223;-81
2023/06/03 19:46:13;;;;;;;6.43;5.83;;;22.30;60.30;;;;;;10359221;28;20203;-82
2023/06/03 19:51:15;;;;;;;7.47;6.00;;;22.20;61.20;;;;;;10361118;28;20216;-82
2023/06/03 19:56:19;;;;;;;6.90;6.23;;;22.10;62.30;;;;;;10360210;28;20211;-81
2023/06/03 20:01:22;;;;;;;8.20;6.97;;;21.90;63.20;;;;;;10358396;28;20211;-81
2023/06/03 20:06:24;;;;;;;6.37;5.80;;;21.80;64.20;;;;;;10377015;28;20199;-81
2023/06/03 20:11:27;;;;;;;7.43;6.73;;;21.70;64.30;;;;;;10357543;28;20766;-82
2023/06/03 20:16:29;;;;;;;6.73;6.13;;;21.60;64.00;;;;;;10375721;28;20273;-81
2023/06/03 20:21:31;;;;;;;6.73;5.93;;;21.40;64.80;;;;;;10358956;28;20219;-81
2023/06/03 20:26:35;;;;;;;7.50;6.67;;;21.40;64.70;;;;;;10360546;28;20199;-81
2023/06/03 20:31:37;;;;;;;7.10;6.40;;;21.20;65.40;;;;;;10377415;28;20229;-82
2023/06/03 20:36:39;;;;;;;6.63;6.03;;;21.20;65.40;;;;;;10360177;28;20264;-82
2023/06/03 20:41:43;;;;;;;8.23;6.03;;;21.00;66.40;;;;;;10383145;28;20246;-81
2023/06/03 20:46:45;;;;;;;7.50;6.33;;;21.00;66.40;;;;;;10402855;28;20221;-80
2023/06/03 20:51:47;;;;;;;8.10;6.40;;;20.90;66.50;;;;;;10336608;28;20267;-81
2023/06/03 20:56:50;;;;;;;6.10;5.50;;;20.80;66.60;;;;;;10343210;28;20226;-80
2023/06/03 21:01:53;;;;;;;7.53;6.77;;;20.70;67.00;;;;;;10361833;28;20219;-82
2023/06/03 21:06:55;;;;;;;7.53;6.83;;;20.70;67.00;;;;;;10379032;28;20206;-83
2023/06/03 21:11:58;;;;;;;11.67;6.37;;;20.60;66.60;;;;;;10339990;28;20231;-82
2023/06/03 21:17:00;;;;;;;7.50;6.70;;;20.50;66.80;;;;;;10373735;28;20233;-82
2023/06/03 21:22:02;;;;;;;7.40;6.23;;;20.50;67.80;;;;;;10355352;28;20274;-81
2023/06/03 21:27:07;;;;;;;6.63;6.03;;;20.40;67.40;;;;;;10374856;28;20825;-82
2023/06/03 21:32:09;;;;;;;10.23;6.80;;;20.40;67.30;;;;;;10377550;28;20231;-83
2023/06/03 21:37:11;;;;;;;7.50;6.80;;;20.30;67.70;;;;;;10365173;28;20338;-83
2023/06/03 21:42:14;;;;;;;8.60;6.97;;;20.30;68.10;;;;;;10365110;28;20254;-83
2023/06/03 21:47:16;;;;;;;6.90;6.20;;;20.30;67.80;;;;;;10344063;28;20199;-83
2023/06/03 21:52:19;;;;;;;7.30;6.60;;;20.20;67.20;;;;;;10349886;28;20215;-83
2023/06/03 21:57:22;;;;;;;6.87;6.20;;;20.20;68.00;;;;;;10356491;28;20227;-83
2023/06/03 22:02:24;;;;;;;7.30;6.60;;;20.10;68.00;;;;;;10372248;28;20223;-82
2023/06/03 22:07:27;;;;;;;8.00;7.20;;;20.00;67.90;;;;;;10389277;28;20273;-82
2023/06/03 22:12:30;;;;;;;6.70;6.20;;;19.90;69.20;;;;;;10356515;28;20639;-83
2023/06/03 22:17:32;;;;;;;7.23;6.53;;;19.90;68.70;;;;;;10356835;28;20237;-83
2023/06/03 22:22:34;;;;;;;7.60;6.73;;;19.90;68.70;;;;;;10382586;28;21292;-82
2023/06/03 22:27:38;;;;;;;7.57;6.87;;;19.80;68.70;;;;;;10388158;28;20750;-83
2023/06/03 22:32:40;;;;;;;7.53;6.70;;;19.70;68.80;;;;;;10354754;28;20246;-83
2023/06/03 22:37:42;;;;;;;7.67;6.80;;;19.70;69.90;;;;;;10372482;28;20219;-83
2023/06/03 22:42:46;;;;;;;5.40;4.50;;;19.60;69.30;;;;;;10366344;28;20285;-83
2023/06/03 22:47:48;;;;;;;8.33;7.53;;;19.60;70.00;;;;;;10355072;28;20615;-83
2023/06/03 22:52:50;;;;;;;7.80;7.10;;;19.50;69.10;;;;;;10354973;28;20223;-83
2023/06/03 22:57:54;;;;;;;7.13;6.43;;;19.40;69.50;;;;;;10370582;28;20273;-83
2023/06/03 23:02:56;;;;;;;7.47;6.63;;;19.30;70.30;;;;;;10371493;28;20231;-83
2023/06/03 23:07:58;;;;;;;7.63;6.93;;;19.30;69.90;;;;;;10383003;28;20214;-83
2023/06/03 23:13:02;;;;;;;8.30;6.73;;;19.20;69.90;;;;;;10344390;28;20223;-82
2023/06/03 23:18:04;;;;;;;7.10;6.50;;;19.20;71.20;;;;;;10363384;28;20231;-83
2023/06/03 23:23:06;;;;;;;10.80;7.70;;;19.10;71.50;;;;;;10344059;28;20231;-82
2023/06/03 23:28:09;;;;;;;7.80;6.63;;;19.10;70.80;;;;;;10345459;28;20489;-82
2023/06/03 23:33:11;;;;;;;7.77;7.07;;;19.00;71.40;;;;;;10360436;28;20318;-82
2023/06/03 23:38:14;;;;;;;8.00;7.20;;;19.00;71.10;;;;;;10345981;28;20231;-82
2023/06/03 23:43:17;;;;;;;8.00;7.20;;;19.00;71.00;;;;;;10364045;28;20238;-81
2023/06/03 23:48:19;;;;;;;7.60;6.90;;;18.90;72.10;;;;;;10348444;28;20560;-82
2023/06/03 23:53:21;;;;;;;8.37;7.53;;;18.80;71.70;;;;;;10358380;28;20278;-81
2023/06/03 23:58:25;;;;;;;7.80;6.87;;;18.80;71.10;;;;;;10361210;28;20230;-82
